sensor_id;sensor_type;location;lat;lon;timestamp;pressure;altitude;pressure_sealevel;temperature;humidity
16821;BME280;8527;49.740;6.604;2023-02-11T00:02:36;101816.19;;;1.10;99.51
16821;BME280;8527;49.740;6.604;2023-02-11T00:07:38;101812.50;;;1.16;98.69
16821;BME280;8527;49.740;6.604;2023-02-11T00:12:37;101807.75;;;1.28;97.87
16821;BME280;8527;49.740;6.604;2023-02-11T00:17:37;101813.53;;;1.36;97.35
16821;BME280;8527;49.740;6.604;2023-02-11T00:22:50;101821.16;;;1.42;97.38
16821;BME280;8527;49.740;6.604;2023-02-11T00:27:48;101809.91;;;1.40;96.54
16821;BME280;8527;49.740;6.604;2023-02-11T00:32:49;101799.66;;;1.34;97.44
16821;BME280;8527;49.740;6.604;2023-02-11T00:37:54;101812.50;;;1.40;97.65
16821;BME280;8527;49.740;6.604;2023-02-11T00:42:58;101800.41;;;1.37;98.19
16821;BME280;8527;49.740;6.604;2023-02-11T00:47:57;101811.69;;;1.38;98.45
16821;BME280;8527;49.740;6.604;2023-02-11T00:52:58;101818.63;;;1.39;99.02
16821;BME280;8527;49.740;6.604;2023-02-11T00:57:57;101813.31;;;1.42;99.33
16821;BME280;8527;49.740;6.604;2023-02-11T01:02:55;101815.97;;;1.40;99.42
16821;BME280;8527;49.740;6.604;2023-02-11T01:07:54;101802.16;;;1.37;100.00
16821;BME280;8527;49.740;6.604;2023-02-11T01:12:55;101800.09;;;1.45;99.31
16821;BME280;8527;49.740;6.604;2023-02-11T01:17:53;101796.28;;;1.54;99.53
16821;BME280;8527;49.740;6.604;2023-02-11T01:22:55;101798.16;;;1.50;99.05
16821;BME280;8527;49.740;6.604;2023-02-11T01:27:59;101793.91;;;1.48;98.76
16821;BME280;8527;49.740;6.604;2023-02-11T01:32:57;101774.91;;;1.43;98.41
16821;BME280;8527;49.740;6.604;2023-02-11T01:37:55;101761.91;;;1.41;98.29
16821;BME280;8527;49.740;6.604;2023-02-11T01:42:54;101777.53;;;1.43;98.28
16821;BME280;8527;49.740;6.604;2023-02-11T01:47:57;101777.59;;;1.41;99.33
16821;BME280;8527;49.740;6.604;2023-02-11T01:52:57;101767.44;;;1.33;99.75
16821;BME280;8527;49.740;6.604;2023-02-11T01:58:18;101752.75;;;1.29;99.40
16821;BME280;8527;49.740;6.604;2023-02-11T02:03:21;101743.47;;;1.22;99.44
16821;BME280;8527;49.740;6.604;2023-02-11T02:08:29;101746.91;;;1.22;100.00
16821;BME280;8527;49.740;6.604;2023-02-11T02:13:30;101747.66;;;1.26;99.07
16821;BME280;8527;49.740;6.604;2023-02-11T02:18:38;101745.22;;;1.21;97.96
16821;BME280;8527;49.740;6.604;2023-02-11T02:35:14;101737.69;;;1.12;97.67
16821;BME280;8527;49.740;6.604;2023-02-11T02:40:22;101736.25;;;1.05;98.14
16821;BME280;8527;49.740;6.604;2023-02-11T02:45:21;101740.28;;;1.14;96.78
16821;BME280;8527;49.740;6.604;2023-02-11T02:50:26;101747.38;;;1.10;96.40
16821;BME280;8527;49.740;6.604;2023-02-11T02:55:48;101750.78;;;1.12;95.73
16821;BME280;8527;49.740;6.604;2023-02-11T03:00:58;101759.66;;;1.08;95.78
16821;BME280;8527;49.740;6.604;2023-02-11T03:06:10;101743.91;;;1.09;95.95
16821;BME280;8527;49.740;6.604;2023-02-11T03:11:16;101751.47;;;1.17;95.48
16821;BME280;8527;49.740;6.604;2023-02-11T03:16:18;101744.47;;;1.18;95.20
16821;BME280;8527;49.740;6.604;2023-02-11T03:21:23;101736.53;;;1.21;95.30
16821;BME280;8527;49.740;6.604;2023-02-11T03:26:27;101742.47;;;1.24;95.92
16821;BME280;8527;49.740;6.604;2023-02-11T03:31:36;101741.47;;;1.29;96.56
16821;BME280;8527;49.740;6.604;2023-02-11T03:36:44;101734.75;;;1.21;98.08
16821;BME280;8527;49.740;6.604;2023-02-11T03:41:48;101729.34;;;1.26;97.26
16821;BME280;8527;49.740;6.604;2023-02-11T03:46:48;101720.53;;;1.29;97.13
16821;BME280;8527;49.740;6.604;2023-02-11T03:51:52;101721.47;;;1.28;96.92
16821;BME280;8527;49.740;6.604;2023-02-11T03:56:54;101717.84;;;1.30;96.85
16821;BME280;8527;49.740;6.604;2023-02-11T04:01:55;101720.53;;;1.29;97.30
16821;BME280;8527;49.740;6.604;2023-02-11T04:06:59;101710.13;;;1.27;97.92
16821;BME280;8527;49.740;6.604;2023-02-11T04:12:01;101699.81;;;1.24;98.75
16821;BME280;8527;49.740;6.604;2023-02-11T04:17:00;101703.25;;;1.24;99.51
16821;BME280;8527;49.740;6.604;2023-02-11T04:22:08;101706.38;;;1.34;98.85
16821;BME280;8527;49.740;6.604;2023-02-11T04:27:12;101704.78;;;1.30;98.90
16821;BME280;8527;49.740;6.604;2023-02-11T04:32:19;101671.09;;;1.22;99.06
16821;BME280;8527;49.740;6.604;2023-02-11T04:37:39;101664.13;;;1.23;98.12
16821;BME280;8527;49.740;6.604;2023-02-11T04:42:37;101663.50;;;1.16;98.58
16821;BME280;8527;49.740;6.604;2023-02-11T04:47:36;101676.75;;;1.11;98.36
16821;BME280;8527;49.740;6.604;2023-02-11T04:52:45;101675.22;;;1.06;98.09
16821;BME280;8527;49.740;6.604;2023-02-11T04:57:47;101683.66;;;0.90;98.33
16821;BME280;8527;49.740;6.604;2023-02-11T05:02:49;101697.25;;;0.98;97.23
16821;BME280;8527;49.740;6.604;2023-02-11T05:07:59;101697.00;;;0.82;97.54
16821;BME280;8527;49.740;6.604;2023-02-11T05:12:57;101702.16;;;0.84;97.84
16821;BME280;8527;49.740;6.604;2023-02-11T05:17:55;101695.09;;;0.86;97.06
16821;BME280;8527;49.740;6.604;2023-02-11T05:22:59;101703.63;;;0.91;96.11
16821;BME280;8527;49.740;6.604;2023-02-11T05:27:58;101712.03;;;1.00;96.38
16821;BME280;8527;49.740;6.604;2023-02-11T05:32:59;101698.13;;;0.99;96.02
16821;BME280;8527;49.740;6.604;2023-02-11T05:38:00;101703.34;;;0.99;96.62
16821;BME280;8527;49.740;6.604;2023-02-11T05:42:58;101702.91;;;0.88;98.23
16821;BME280;8527;49.740;6.604;2023-02-11T05:47:57;101711.34;;;0.94;98.64
16821;BME280;8527;49.740;6.604;2023-02-11T05:52:55;101712.72;;;1.05;98.53
16821;BME280;8527;49.740;6.604;2023-02-11T05:57:56;101713.34;;;1.11;98.67
16821;BME280;8527;49.740;6.604;2023-02-11T06:02:57;101719.19;;;1.18;98.68
16821;BME280;8527;49.740;6.604;2023-02-11T06:07:56;101697.53;;;1.15;98.76
16821;BME280;8527;49.740;6.604;2023-02-11T06:13:00;101693.88;;;1.19;98.78
16821;BME280;8527;49.740;6.604;2023-02-11T06:17:59;101711.84;;;1.28;98.72
16821;BME280;8527;49.740;6.604;2023-02-11T06:23:11;101699.69;;;1.27;98.54
16821;BME280;8527;49.740;6.604;2023-02-11T06:28:12;101698.88;;;1.25;98.46
16821;BME280;8527;49.740;6.604;2023-02-11T06:33:14;101702.34;;;1.25;99.01
16821;BME280;8527;49.740;6.604;2023-02-11T06:38:12;101701.56;;;1.23;99.48
16821;BME280;8527;49.740;6.604;2023-02-11T06:43:16;101701.31;;;1.30;99.63
16821;BME280;8527;49.740;6.604;2023-02-11T06:48:20;101705.50;;;1.34;99.45
16821;BME280;8527;49.740;6.604;2023-02-11T06:53:19;101711.34;;;1.40;99.90
16821;BME280;8527;49.740;6.604;2023-02-11T06:58:20;101709.34;;;1.47;99.95
16821;BME280;8527;49.740;6.604;2023-02-11T07:03:20;101705.81;;;1.48;99.59
16821;BME280;8527;49.740;6.604;2023-02-11T07:08:18;101713.31;;;1.58;99.96
16821;BME280;8527;49.740;6.604;2023-02-11T07:13:19;101728.56;;;1.68;99.50
16821;BME280;8527;49.740;6.604;2023-02-11T07:18:18;101723.84;;;1.78;99.47
16821;BME280;8527;49.740;6.604;2023-02-11T07:23:25;101717.50;;;1.84;97.96
16821;BME280;8527;49.740;6.604;2023-02-11T07:28:26;101720.13;;;1.84;97.55
16821;BME280;8527;49.740;6.604;2023-02-11T07:33:24;101726.19;;;1.85;97.67
16821;BME280;8527;49.740;6.604;2023-02-11T07:38:23;101725.28;;;1.86;97.61
16821;BME280;8527;49.740;6.604;2023-02-11T07:43:27;101712.97;;;1.88;98.17
16821;BME280;8527;49.740;6.604;2023-02-11T07:48:26;101718.63;;;1.99;96.07
16821;BME280;8527;49.740;6.604;2023-02-11T07:53:24;101727.94;;;2.06;95.18
16821;BME280;8527;49.740;6.604;2023-02-11T07:58:23;101729.44;;;2.12;94.50
16821;BME280;8527;49.740;6.604;2023-02-11T08:03:24;101733.50;;;2.19;94.10
16821;BME280;8527;49.740;6.604;2023-02-11T08:08:28;101741.88;;;2.28;94.03
16821;BME280;8527;49.740;6.604;2023-02-11T08:13:26;101747.72;;;2.34;93.90
16821;BME280;8527;49.740;6.604;2023-02-11T08:18:27;101762.19;;;2.43;93.55
16821;BME280;8527;49.740;6.604;2023-02-11T08:23:28;101747.19;;;2.47;93.27
16821;BME280;8527;49.740;6.604;2023-02-11T08:28:27;101767.75;;;2.56;93.25
16821;BME280;8527;49.740;6.604;2023-02-11T08:33:28;101760.69;;;2.58;93.13
16821;BME280;8527;49.740;6.604;2023-02-11T08:38:26;101762.13;;;2.65;92.39
16821;BME280;8527;49.740;6.604;2023-02-11T08:43:24;101770.44;;;2.75;92.41
16821;BME280;8527;49.740;6.604;2023-02-11T08:48:31;101759.75;;;2.80;92.68
16821;BME280;8527;49.740;6.604;2023-02-11T08:53:30;101768.88;;;2.90;92.38
16821;BME280;8527;49.740;6.604;2023-02-11T08:58:32;101764.16;;;2.99;91.67
16821;BME280;8527;49.740;6.604;2023-02-11T09:03:42;101767.44;;;3.04;91.46
16821;BME280;8527;49.740;6.604;2023-02-11T09:08:42;101761.66;;;3.16;90.89
16821;BME280;8527;49.740;6.604;2023-02-11T09:13:42;101773.53;;;3.23;90.97
16821;BME280;8527;49.740;6.604;2023-02-11T09:18:43;101762.78;;;3.30;91.46
16821;BME280;8527;49.740;6.604;2023-02-11T09:23:46;101775.09;;;3.47;91.37
16821;BME280;8527;49.740;6.604;2023-02-11T09:28:47;101773.13;;;3.52;91.55
16821;BME280;8527;49.740;6.604;2023-02-11T09:33:54;101768.94;;;3.48;91.16
16821;BME280;8527;49.740;6.604;2023-02-11T09:38:58;101775.38;;;3.60;91.58
16821;BME280;8527;49.740;6.604;2023-02-11T09:43:59;101781.69;;;3.75;91.29
16821;BME280;8527;49.740;6.604;2023-02-11T09:49:05;101793.31;;;3.69;91.48
16821;BME280;8527;49.740;6.604;2023-02-11T09:54:11;101807.63;;;3.81;92.40
16821;BME280;8527;49.740;6.604;2023-02-11T09:59:13;101802.09;;;3.87;91.84
16821;BME280;8527;49.740;6.604;2023-02-11T10:04:23;101809.22;;;4.03;91.77
16821;BME280;8527;49.740;6.604;2023-02-11T10:09:38;101822.31;;;4.22;91.81
16821;BME280;8527;49.740;6.604;2023-02-11T10:15:03;101823.47;;;4.16;91.69
16821;BME280;8527;49.740;6.604;2023-02-11T10:20:15;101816.13;;;4.23;90.94
16821;BME280;8527;49.740;6.604;2023-02-11T10:25:22;101815.53;;;4.35;90.67
16821;BME280;8527;49.740;6.604;2023-02-11T10:30:27;101822.31;;;4.40;90.51
16821;BME280;8527;49.740;6.604;2023-02-11T10:35:29;101820.22;;;4.46;90.75
16821;BME280;8527;49.740;6.604;2023-02-11T10:40:31;101812.50;;;4.61;90.09
16821;BME280;8527;49.740;6.604;2023-02-11T10:45:33;101814.47;;;4.57;89.67
16821;BME280;8527;49.740;6.604;2023-02-11T10:50:38;101798.13;;;4.68;89.85
16821;BME280;8527;49.740;6.604;2023-02-11T10:55:51;101794.63;;;4.85;89.28
16821;BME280;8527;49.740;6.604;2023-02-11T11:00:52;101791.13;;;4.85;88.62
16821;BME280;8527;49.740;6.604;2023-02-11T11:05:55;101792.47;;;4.76;88.68
16821;BME280;8527;49.740;6.604;2023-02-11T11:11:04;101805.34;;;4.98;88.40
16821;BME280;8527;49.740;6.604;2023-02-11T11:16:19;101803.31;;;5.03;87.32
16821;BME280;8527;49.740;6.604;2023-02-11T11:21:23;101804.16;;;5.04;87.14
16821;BME280;8527;49.740;6.604;2023-02-11T11:26:26;101806.00;;;5.19;87.23
16821;BME280;8527;49.740;6.604;2023-02-11T11:31:28;101804.63;;;5.12;87.42
16821;BME280;8527;49.740;6.604;2023-02-11T11:36:41;101806.25;;;5.15;86.48
16821;BME280;8527;49.740;6.604;2023-02-11T11:41:48;101816.44;;;5.37;86.91
16821;BME280;8527;49.740;6.604;2023-02-11T11:46:51;101805.84;;;5.39;86.12
16821;BME280;8527;49.740;6.604;2023-02-11T11:52:07;101795.75;;;5.63;86.39
16821;BME280;8527;49.740;6.604;2023-02-11T11:57:24;101789.22;;;5.70;85.45
16821;BME280;8527;49.740;6.604;2023-02-11T12:02:42;101787.22;;;5.74;85.44
16821;BME280;8527;49.740;6.604;2023-02-11T12:07:58;101772.81;;;5.81;85.31
16821;BME280;8527;49.740;6.604;2023-02-11T12:13:10;101773.06;;;5.76;85.00
16821;BME280;8527;49.740;6.604;2023-02-11T12:18:24;101759.63;;;5.81;85.20
16821;BME280;8527;49.740;6.604;2023-02-11T12:23:45;101762.13;;;5.99;85.44
16821;BME280;8527;49.740;6.604;2023-02-11T12:28:59;101769.09;;;6.00;84.87
16821;BME280;8527;49.740;6.604;2023-02-11T12:34:24;101757.31;;;6.07;85.82
16821;BME280;8527;49.740;6.604;2023-02-11T12:39:40;101755.34;;;5.95;85.86
16821;BME280;8527;49.740;6.604;2023-02-11T12:44:54;101746.78;;;6.07;85.50
16821;BME280;8527;49.740;6.604;2023-02-11T12:50:05;101751.78;;;6.12;85.57
16821;BME280;8527;49.740;6.604;2023-02-11T12:55:18;101748.88;;;6.16;84.93
16821;BME280;8527;49.740;6.604;2023-02-11T13:00:21;101752.63;;;6.12;85.12
16821;BME280;8527;49.740;6.604;2023-02-11T13:05:26;101748.63;;;6.21;85.45
16821;BME280;8527;49.740;6.604;2023-02-11T13:10:36;101754.53;;;6.25;85.59
16821;BME280;8527;49.740;6.604;2023-02-11T13:15:35;101737.22;;;6.21;85.75
16821;BME280;8527;49.740;6.604;2023-02-11T13:20:48;101731.84;;;6.22;85.89
16821;BME280;8527;49.740;6.604;2023-02-11T13:25:55;101723.75;;;6.25;86.04
16821;BME280;8527;49.740;6.604;2023-02-11T13:30:59;101718.50;;;6.40;85.91
16821;BME280;8527;49.740;6.604;2023-02-11T13:36:22;101731.88;;;6.37;85.99
16821;BME280;8527;49.740;6.604;2023-02-11T13:41:27;101725.41;;;6.42;86.57
16821;BME280;8527;49.740;6.604;2023-02-11T13:46:48;101728.56;;;6.33;86.84
16821;BME280;8527;49.740;6.604;2023-02-11T13:51:49;101727.00;;;6.45;86.60
16821;BME280;8527;49.740;6.604;2023-02-11T14:02:29;101717.84;;;6.36;86.87
16821;BME280;8527;49.740;6.604;2023-02-11T14:08:15;101709.38;;;6.45;87.03
16821;BME280;8527;49.740;6.604;2023-02-11T14:13:27;101714.00;;;6.42;86.99
16821;BME280;8527;49.740;6.604;2023-02-11T14:19:07;101725.84;;;6.35;87.92
16821;BME280;8527;49.740;6.604;2023-02-11T14:29:36;101707.75;;;6.28;87.98
16821;BME280;8527;49.740;6.604;2023-02-11T14:34:46;101711.25;;;6.29;88.39
16821;BME280;8527;49.740;6.604;2023-02-11T14:40:03;101704.66;;;6.36;88.26
16821;BME280;8527;49.740;6.604;2023-02-11T14:45:18;101707.88;;;6.27;88.43
16821;BME280;8527;49.740;6.604;2023-02-11T14:50:31;101713.56;;;6.19;89.37
16821;BME280;8527;49.740;6.604;2023-02-11T14:55:35;101711.13;;;6.16;89.45
16821;BME280;8527;49.740;6.604;2023-02-11T15:00:50;101720.56;;;6.20;89.04
16821;BME280;8527;49.740;6.604;2023-02-11T15:05:56;101718.50;;;6.25;89.28
16821;BME280;8527;49.740;6.604;2023-02-11T15:10:57;101722.00;;;6.26;89.20
16821;BME280;8527;49.740;6.604;2023-02-11T15:16:09;101720.59;;;6.35;88.94
16821;BME280;8527;49.740;6.604;2023-02-11T15:21:09;101714.84;;;6.28;89.28
16821;BME280;8527;49.740;6.604;2023-02-11T15:26:12;101705.53;;;6.37;89.59
16821;BME280;8527;49.740;6.604;2023-02-11T15:31:17;101704.50;;;6.39;89.04
16821;BME280;8527;49.740;6.604;2023-02-11T15:36:21;101721.53;;;6.33;89.22
16821;BME280;8527;49.740;6.604;2023-02-11T15:41:34;101714.16;;;6.24;89.90
16821;BME280;8527;49.740;6.604;2023-02-11T15:46:37;101715.00;;;6.25;90.15
16821;BME280;8527;49.740;6.604;2023-02-11T15:51:45;101716.13;;;6.21;90.95
16821;BME280;8527;49.740;6.604;2023-02-11T15:56:53;101723.19;;;6.20;90.78
16821;BME280;8527;49.740;6.604;2023-02-11T16:02:05;101734.09;;;6.14;91.33
16821;BME280;8527;49.740;6.604;2023-02-11T16:07:04;101722.19;;;6.07;91.48
16821;BME280;8527;49.740;6.604;2023-02-11T16:12:19;101722.97;;;6.09;92.30
16821;BME280;8527;49.740;6.604;2023-02-11T16:17:27;101729.19;;;6.08;92.32
16821;BME280;8527;49.740;6.604;2023-02-11T16:22:33;101737.34;;;6.03;92.48
16821;BME280;8527;49.740;6.604;2023-02-11T16:27:38;101736.31;;;6.05;92.65
16821;BME280;8527;49.740;6.604;2023-02-11T16:32:41;101740.47;;;6.10;92.38
16821;BME280;8527;49.740;6.604;2023-02-11T16:37:39;101743.38;;;6.05;92.38
16821;BME280;8527;49.740;6.604;2023-02-11T16:42:38;101750.91;;;6.11;92.33
16821;BME280;8527;49.740;6.604;2023-02-11T16:47:37;101748.97;;;6.15;91.90
16821;BME280;8527;49.740;6.604;2023-02-11T16:52:44;101754.88;;;6.04;92.58
16821;BME280;8527;49.740;6.604;2023-02-11T16:57:42;101757.31;;;6.07;92.35
16821;BME280;8527;49.740;6.604;2023-02-11T17:02:41;101762.84;;;6.02;92.47
16821;BME280;8527;49.740;6.604;2023-02-11T17:07:42;101761.72;;;6.07;92.69
16821;BME280;8527;49.740;6.604;2023-02-11T17:12:43;101767.41;;;6.15;91.38
16821;BME280;8527;49.740;6.604;2023-02-11T17:17:42;101775.22;;;6.00;92.09
16821;BME280;8527;49.740;6.604;2023-02-11T17:22:43;101781.59;;;6.12;92.15
16821;BME280;8527;49.740;6.604;2023-02-11T17:27:41;101792.31;;;6.09;91.38
16821;BME280;8527;49.740;6.604;2023-02-11T17:32:40;101792.81;;;6.00;92.14
16821;BME280;8527;49.740;6.604;2023-02-11T17:37:39;101800.91;;;5.97;92.00
16821;BME280;8527;49.740;6.604;2023-02-11T17:42:43;101794.28;;;5.89;92.53
16821;BME280;8527;49.740;6.604;2023-02-11T17:47:41;101802.59;;;5.98;92.18
16821;BME280;8527;49.740;6.604;2023-02-11T17:52:43;101813.56;;;5.90;92.17
16821;BME280;8527;49.740;6.604;2023-02-11T17:57:44;101803.53;;;5.97;92.26
16821;BME280;8527;49.740;6.604;2023-02-11T18:02:42;101813.50;;;5.91;92.20
16821;BME280;8527;49.740;6.604;2023-02-11T18:07:41;101802.47;;;5.85;92.90
16821;BME280;8527;49.740;6.604;2023-02-11T18:12:39;101806.59;;;5.73;92.76
16821;BME280;8527;49.740;6.604;2023-02-11T18:17:40;101815.94;;;5.78;92.79
16821;BME280;8527;49.740;6.604;2023-02-11T18:22:43;101811.53;;;5.79;93.20
16821;BME280;8527;49.740;6.604;2023-02-11T18:27:42;101804.59;;;5.78;92.52
16821;BME280;8527;49.740;6.604;2023-02-11T18:32:43;101817.56;;;5.81;92.02
16821;BME280;8527;49.740;6.604;2023-02-11T18:37:47;101820.47;;;5.76;92.47
16821;BME280;8527;49.740;6.604;2023-02-11T18:42:46;101826.59;;;5.77;92.61
16821;BME280;8527;49.740;6.604;2023-02-11T18:47:47;101829.72;;;5.68;92.71
16821;BME280;8527;49.740;6.604;2023-02-11T18:52:47;101824.28;;;5.71;92.16
16821;BME280;8527;49.740;6.604;2023-02-11T18:57:46;101824.03;;;5.75;91.94
16821;BME280;8527;49.740;6.604;2023-02-11T19:02:48;101825.81;;;5.75;92.53
16821;BME280;8527;49.740;6.604;2023-02-11T19:07:50;101830.16;;;5.76;92.93
16821;BME280;8527;49.740;6.604;2023-02-11T19:12:50;101831.25;;;5.72;92.99
16821;BME280;8527;49.740;6.604;2023-02-11T19:17:53;101833.81;;;5.73;92.49
16821;BME280;8527;49.740;6.604;2023-02-11T19:22:51;101835.94;;;5.67;93.08
16821;BME280;8527;49.740;6.604;2023-02-11T19:27:50;101836.88;;;5.66;93.02
16821;BME280;8527;49.740;6.604;2023-02-11T19:32:48;101839.47;;;5.49;94.00
16821;BME280;8527;49.740;6.604;2023-02-11T19:37:52;101834.03;;;5.53;93.96
16821;BME280;8527;49.740;6.604;2023-02-11T19:42:51;101834.16;;;5.51;94.96
16821;BME280;8527;49.740;6.604;2023-02-11T19:47:54;101820.38;;;5.46;94.17
16821;BME280;8527;49.740;6.604;2023-02-11T19:52:55;101824.38;;;5.53;94.46
16821;BME280;8527;49.740;6.604;2023-02-11T19:57:56;101828.19;;;5.47;94.19
16821;BME280;8527;49.740;6.604;2023-02-11T20:02:55;101836.50;;;5.56;94.42
16821;BME280;8527;49.740;6.604;2023-02-11T20:07:56;101835.31;;;5.45;94.67
16821;BME280;8527;49.740;6.604;2023-02-11T20:12:55;101845.19;;;5.58;94.19
16821;BME280;8527;49.740;6.604;2023-02-11T20:17:56;101840.50;;;5.47;94.45
16821;BME280;8527;49.740;6.604;2023-02-11T20:22:59;101846.38;;;5.52;94.68
16821;BME280;8527;49.740;6.604;2023-02-11T20:27:58;101846.19;;;5.55;93.88
16821;BME280;8527;49.740;6.604;2023-02-11T20:32:56;101846.44;;;5.51;94.07
16821;BME280;8527;49.740;6.604;2023-02-11T20:37:56;101846.28;;;5.54;93.84
16821;BME280;8527;49.740;6.604;2023-02-11T20:42:57;101849.25;;;5.47;93.99
16821;BME280;8527;49.740;6.604;2023-02-11T20:47:56;101850.94;;;5.48;94.37
16821;BME280;8527;49.740;6.604;2023-02-11T20:52:54;101847.78;;;5.42;94.80
16821;BME280;8527;49.740;6.604;2023-02-11T20:57:53;101842.34;;;5.45;93.88
16821;BME280;8527;49.740;6.604;2023-02-11T21:02:57;101843.97;;;5.47;94.90
16821;BME280;8527;49.740;6.604;2023-02-11T21:07:56;101845.16;;;5.42;94.58
16821;BME280;8527;49.740;6.604;2023-02-11T21:12:54;101849.56;;;5.41;94.53
16821;BME280;8527;49.740;6.604;2023-02-11T21:17:57;101866.06;;;5.45;95.29
16821;BME280;8527;49.740;6.604;2023-02-11T21:22:55;101868.16;;;5.38;94.60
16821;BME280;8527;49.740;6.604;2023-02-11T21:27:54;101863.59;;;5.42;94.85
16821;BME280;8527;49.740;6.604;2023-02-11T21:32:59;101875.28;;;5.36;95.33
16821;BME280;8527;49.740;6.604;2023-02-11T21:37:57;101869.09;;;5.37;95.00
16821;BME280;8527;49.740;6.604;2023-02-11T21:42:58;101866.53;;;5.35;95.07
16821;BME280;8527;49.740;6.604;2023-02-11T21:48:00;101868.94;;;5.40;95.17
16821;BME280;8527;49.740;6.604;2023-02-11T21:53:01;101866.28;;;5.40;94.94
16821;BME280;8527;49.740;6.604;2023-02-11T21:58:02;101864.84;;;5.34;95.35
16821;BME280;8527;49.740;6.604;2023-02-11T22:03:04;101865.47;;;5.40;94.44
16821;BME280;8527;49.740;6.604;2023-02-11T22:08:02;101864.69;;;5.38;95.66
16821;BME280;8527;49.740;6.604;2023-02-11T22:13:01;101864.00;;;5.34;95.26
16821;BME280;8527;49.740;6.604;2023-02-11T22:17:59;101863.84;;;5.37;94.78
16821;BME280;8527;49.740;6.604;2023-02-11T22:23:00;101856.28;;;5.31;95.29
16821;BME280;8527;49.740;6.604;2023-02-11T22:27:59;101851.84;;;5.31;94.97
16821;BME280;8527;49.740;6.604;2023-02-11T22:33:00;101858.91;;;5.31;95.15
16821;BME280;8527;49.740;6.604;2023-02-11T22:38:02;101860.75;;;5.29;94.99
16821;BME280;8527;49.740;6.604;2023-02-11T22:43:01;101860.75;;;5.29;95.22
16821;BME280;8527;49.740;6.604;2023-02-11T22:47:59;101868.75;;;5.27;95.90
16821;BME280;8527;49.740;6.604;2023-02-11T22:52:58;101877.63;;;5.25;95.50
16821;BME280;8527;49.740;6.604;2023-02-11T22:58:01;101882.22;;;5.21;96.08
16821;BME280;8527;49.740;6.604;2023-02-11T23:03:05;101884.13;;;5.17;96.33
16821;BME280;8527;49.740;6.604;2023-02-11T23:08:04;101881.44;;;5.19;95.93
16821;BME280;8527;49.740;6.604;2023-02-11T23:13:06;101892.72;;;5.21;97.04
16821;BME280;8527;49.740;6.604;2023-02-11T23:18:05;101888.09;;;5.09;97.22
16821;BME280;8527;49.740;6.604;2023-02-11T23:23:03;101900.63;;;5.21;96.92
16821;BME280;8527;49.740;6.604;2023-02-11T23:28:07;101899.16;;;5.15;96.85
16821;BME280;8527;49.740;6.604;2023-02-11T23:33:06;101900.63;;;5.21;97.23
16821;BME280;8527;49.740;6.604;2023-02-11T23:38:07;101894.53;;;5.20;96.21
16821;BME280;8527;49.740;6.604;2023-02-11T23:43:08;101906.75;;;5.21;96.66
16821;BME280;8527;49.740;6.604;2023-02-11T23:48:06;101905.13;;;5.19;97.25
16821;BME280;8527;49.740;6.604;2023-02-11T23:53:05;101898.69;;;5.25;97.12
16821;BME280;8527;49.740;6.604;2023-02-11T23:58:03;101903.09;;;5.24;98.09
